Etusivu
METAR-TAF:

METAR-TAF

Lentoasemat :

Kisarazu, Japani

Leveyspiiri: 35-24N, Pituuspiiri: 139-55E, korkeus merenpinnasta: 3 m

Tämänhetkinen sää

Tämä raportti tehtiin 4 tuntia ja 32 minuuttia sitten, kello 07.44 UTC
Tuuli 5 kn pohjoisesta
Lämpötila 15°C
Kosteus 72%
Ilmanpaine 1017 hPa
Näkyvyys 10 km tai enemmän
Muutamia pilviä 2000 ft:n korkeudessa
Hajanaisia pilviä 3000 ft:n korkeudessa

METAR: RJTK 130744Z 36005KT 9999 FEW020 SCT030 15/10 Q1017 RMK 1CU020 3CU030 A3005

Aika: 21:16 (12:16 UTC)


TAF: puuttuu

Säähavainnot ja -ennusteet yli 4000 lentoasemalta (METAR- ja TAF-raportit).

Käytössä olevat sääasemat on merkitty karttaan keltaisilla ja punaisilla pisteillä.

Aseta hiiri pisteen päälle nähdäksesi sääaseman nimen.

Klikkaa sitten nähdäksesi säähavainnot ja -ennusteet.

Kartan vaihtaminen: klikkaa mustalla rastilla varustettuja vihreitä pisteitä, niin voit zoomata sisään; viivalla varustettua vihreää pistettä, niin voit zoomata ulos tai vihreitä nuolia, niin pääset viereisille kartoille.


METAR-TAF: